Time;durP1;ratioP1;P1;durP2;ratioP2;P2;SDS_P1;SDS_P2;PMS_P1;PMS_P2;Temp;Humidity;BMP_temperature;BMP_pressure;BME280_temperature;BME280_humidity;BME280_pressure;Samples;Min_cycle;Max_cycle;Signal;HPM_P1;HPM_P2
2022/10/12 00:01:24;;;;;;;25.73;23.05;;;15.00;91.80;;;;;;4973125;28;20408;-79
2022/10/12 00:03:50;;;;;;;24.38;21.90;;;15.00;91.90;;;;;;4991111;28;20030;-79
2022/10/12 00:06:19;;;;;;;26.45;24.13;;;15.00;91.70;;;;;;4991110;28;20037;-79
2022/10/12 00:08:46;;;;;;;25.08;22.77;;;15.10;91.60;;;;;;4958907;28;20407;-79
2022/10/12 00:11:32;;;;;;;25.40;23.13;;;15.10;91.20;;;;;;4989916;28;20039;-79
2022/10/12 00:13:59;;;;;;;23.52;21.45;;;15.20;91.10;;;;;;4991383;28;20039;-79
2022/10/12 00:16:25;;;;;;;26.60;24.15;;;15.00;91.20;;;;;;4977158;28;20046;-79
2022/10/12 00:18:52;;;;;;;25.15;23.08;;;15.00;91.40;;;;;;4968304;28;20054;-79
2022/10/12 00:21:18;;;;;;;25.48;23.02;;;15.00;91.20;;;;;;4972692;28;20373;-79
2022/10/12 00:23:44;;;;;;;25.25;23.17;;;14.90;91.20;;;;;;4972081;28;20034;-79
2022/10/12 00:26:21;;;;;;;24.00;22.13;;;14.90;91.30;;;;;;5002604;28;20484;-79
2022/10/12 00:28:47;;;;;;;25.13;22.60;;;14.80;91.40;;;;;;4955854;28;20046;-79
2022/10/12 00:31:15;;;;;;;25.23;22.80;;;14.70;91.50;;;;;;4955269;28;20039;-79
2022/10/12 00:33:42;;;;;;;27.17;24.52;;;14.60;91.40;;;;;;4944113;28;20483;-79
2022/10/12 00:36:13;;;;;;;24.80;22.45;;;14.60;91.50;;;;;;4961421;28;20046;-79
2022/10/12 00:38:39;;;;;;;25.75;23.58;;;14.70;91.50;;;;;;4987181;28;20046;-79
2022/10/12 00:41:05;;;;;;;23.73;21.60;;;14.60;91.50;;;;;;4988360;28;20061;-79
2022/10/12 00:43:34;;;;;;;24.77;22.85;;;14.60;91.30;;;;;;4959883;28;20026;-79
2022/10/12 00:46:02;;;;;;;28.00;25.65;;;14.70;91.30;;;;;;4959533;28;20034;-79
2022/10/12 00:48:28;;;;;;;24.52;22.20;;;14.70;91.30;;;;;;4943440;28;20050;-79
2022/10/12 00:50:54;;;;;;;23.50;21.52;;;14.60;91.50;;;;;;4994854;28;20053;-79
2022/10/12 00:53:23;;;;;;;23.58;21.58;;;14.60;91.20;;;;;;4995219;28;20019;-79
2022/10/12 00:55:54;;;;;;;23.52;21.30;;;14.60;91.30;;;;;;4984599;28;20039;-79
2022/10/12 00:58:20;;;;;;;24.75;22.40;;;14.50;91.30;;;;;;4976175;28;20043;-79
2022/10/12 01:00:46;;;;;;;24.63;22.42;;;14.60;91.20;;;;;;4977992;28;20034;-79
2022/10/12 01:03:14;;;;;;;24.50;22.02;;;14.60;91.00;;;;;;4995270;28;20498;-79
2022/10/12 01:05:40;;;;;;;22.83;20.58;;;14.50;91.20;;;;;;4994926;28;20034;-79
2022/10/12 01:08:06;;;;;;;21.58;19.88;;;14.40;91.10;;;;;;4995087;28;20360;-79
2022/10/12 01:10:32;;;;;;;22.60;20.77;;;14.30;91.20;;;;;;4976730;28;20049;-79
2022/10/12 01:12:58;;;;;;;22.65;20.83;;;14.20;91.30;;;;;;4987819;28;20376;-79
2022/10/12 01:15:30;;;;;;;24.50;22.48;;;14.20;91.50;;;;;;4977944;28;20034;-79
2022/10/12 01:18:01;;;;;;;22.60;20.75;;;14.10;91.50;;;;;;4993050;28;20038;-79
2022/10/12 01:20:30;;;;;;;23.27;21.38;;;14.10;91.50;;;;;;4976650;28;20404;-78
2022/10/12 01:23:36;;;;;;;22.40;20.50;;;14.10;91.50;;;;;;4995809;28;20037;-79
2022/10/12 01:26:33;;;;;;;22.17;20.02;;;14.00;91.60;;;;;;4987020;28;20042;-79
2022/10/12 01:29:08;;;;;;;23.30;21.00;;;14.10;91.50;;;;;;4988642;28;20519;-79
2022/10/12 01:31:42;;;;;;;23.00;21.02;;;14.00;91.40;;;;;;4979691;28;20038;-79
2022/10/12 01:34:16;;;;;;;22.30;20.20;;;14.00;91.50;;;;;;4977829;28;20038;-79
2022/10/12 01:36:44;;;;;;;20.90;19.02;;;14.00;91.40;;;;;;4999966;28;20033;-79
2022/10/12 01:39:12;;;;;;;22.08;20.27;;;14.00;91.30;;;;;;4976277;28;20046;-79
2022/10/12 01:41:49;;;;;;;22.30;20.40;;;14.00;91.60;;;;;;4988206;28;20026;-79
2022/10/12 01:44:22;;;;;;;21.52;19.45;;;13.90;91.40;;;;;;4958663;28;20122;-79
2022/10/12 01:46:49;;;;;;;21.00;18.85;;;13.90;91.40;;;;;;4988518;28;20038;-79
2022/10/12 01:49:16;;;;;;;20.10;18.58;;;13.90;91.30;;;;;;4971008;28;20045;-79
2022/10/12 01:52:00;;;;;;;21.75;19.63;;;13.90;91.30;;;;;;4985426;28;20039;-79
2022/10/12 01:54:36;;;;;;;19.67;18.08;;;13.80;91.50;;;;;;4992279;28;20033;-79
2022/10/12 01:57:13;;;;;;;20.83;18.95;;;13.80;91.40;;;;;;4994340;28;20467;-79
2022/10/12 01:59:52;;;;;;;20.08;18.17;;;13.80;91.20;;;;;;4970801;28;20524;-79
2022/10/12 02:02:36;;;;;;;20.70;18.85;;;13.70;91.50;;;;;;4988735;28;20404;-79
2022/10/12 02:05:33;;;;;;;20.92;18.77;;;13.60;91.70;;;;;;4984386;28;20034;-79
2022/10/12 02:08:08;;;;;;;22.38;20.73;;;13.50;91.80;;;;;;4984684;28;20078;-79
2022/10/12 02:10:46;;;;;;;19.92;18.23;;;13.40;91.90;;;;;;4984624;28;20038;-79
2022/10/12 02:13:12;;;;;;;22.77;20.42;;;13.40;92.00;;;;;;4983216;28;20412;-78
2022/10/12 02:15:41;;;;;;;20.75;18.75;;;13.40;92.00;;;;;;4966671;28;20253;-79
2022/10/12 02:18:07;;;;;;;21.65;19.52;;;13.30;92.10;;;;;;4963073;28;20033;-79
2022/10/12 02:20:33;;;;;;;21.17;19.35;;;13.40;92.10;;;;;;4956085;28;20066;-80
2022/10/12 02:22:59;;;;;;;18.95;17.25;;;13.40;92.00;;;;;;4973931;28;20384;-79
2022/10/12 02:25:26;;;;;;;19.55;18.05;;;13.50;91.70;;;;;;4945498;28;20043;-79
2022/10/12 02:27:56;;;;;;;20.52;18.52;;;13.50;91.70;;;;;;4974575;28;20519;-79
2022/10/12 02:30:22;;;;;;;20.67;18.77;;;13.50;91.70;;;;;;4975277;28;20038;-80
2022/10/12 02:33:11;;;;;;;19.52;17.73;;;13.50;91.70;;;;;;4957490;28;20041;-79
2022/10/12 02:35:44;;;;;;;20.40;18.33;;;13.40;91.60;;;;;;4956456;28;20046;-80
2022/10/12 02:38:18;;;;;;;20.45;18.65;;;13.40;91.70;;;;;;4981223;28;20022;-79
2022/10/12 02:40:47;;;;;;;20.05;18.17;;;13.40;91.70;;;;;;4973208;28;20042;-79
2022/10/12 02:43:20;;;;;;;19.95;18.20;;;13.30;91.80;;;;;;4974083;28;20049;-79
2022/10/12 02:45:47;;;;;;;19.77;17.80;;;13.30;91.80;;;;;;4992196;28;20041;-79
2022/10/12 02:48:16;;;;;;;20.67;18.77;;;13.30;91.80;;;;;;4975301;28;20065;-79
2022/10/12 02:50:42;;;;;;;19.63;17.83;;;13.20;91.80;;;;;;4972415;28;20239;-79
2022/10/12 02:53:09;;;;;;;19.83;17.88;;;13.30;91.90;;;;;;4977532;28;20480;-79
2022/10/12 02:55:48;;;;;;;18.65;17.13;;;13.20;91.80;;;;;;4959346;28;20046;-79
2022/10/12 02:58:14;;;;;;;19.23;17.63;;;13.20;91.90;;;;;;4992336;28;20041;-79
2022/10/12 03:00:40;;;;;;;19.20;17.55;;;13.30;91.70;;;;;;4975827;28;20372;-79
2022/10/12 03:03:06;;;;;;;18.83;17.13;;;13.20;91.60;;;;;;4992753;28;20034;-79
2022/10/12 03:05:32;;;;;;;19.88;18.05;;;13.20;91.80;;;;;;4992397;28;20426;-79
2022/10/12 03:07:58;;;;;;;18.90;17.38;;;13.20;91.80;;;;;;4991371;28;20042;-79
2022/10/12 03:10:24;;;;;;;19.80;18.08;;;13.30;91.60;;;;;;4959824;28;20058;-79
2022/10/12 03:12:50;;;;;;;19.98;18.17;;;13.30;91.50;;;;;;4971440;28;20045;-79
2022/10/12 03:15:17;;;;;;;28.38;25.60;;;13.30;91.40;;;;;;4970986;28;20050;-79
2022/10/12 03:17:43;;;;;;;27.33;24.52;;;13.30;91.40;;;;;;4975871;28;20065;-79
2022/10/12 03:20:09;;;;;;;22.00;20.08;;;13.40;91.40;;;;;;4972248;28;20061;-79
2022/10/12 03:22:35;;;;;;;21.45;19.65;;;13.30;91.40;;;;;;4961787;28;20047;-79
2022/10/12 03:25:01;;;;;;;23.95;21.85;;;13.20;91.50;;;;;;4985661;28;20034;-79
2022/10/12 03:27:28;;;;;;;23.00;20.83;;;13.20;91.60;;;;;;4976092;28;20034;-78
2022/10/12 03:29:54;;;;;;;23.63;21.52;;;13.20;91.70;;;;;;4991705;28;20038;-79
2022/10/12 03:32:21;;;;;;;22.70;20.55;;;13.10;91.80;;;;;;4975086;28;20038;-79
2022/10/12 03:34:47;;;;;;;26.58;23.95;;;13.10;91.70;;;;;;4991580;28;20066;-79
2022/10/12 03:37:13;;;;;;;25.52;20.60;;;13.20;91.60;;;;;;4995402;28;20039;-79
2022/10/12 03:39:39;;;;;;;22.02;19.25;;;13.20;91.80;;;;;;4959339;28;20491;-79
2022/10/12 03:42:05;;;;;;;21.58;19.55;;;13.20;91.50;;;;;;4974440;28;20045;-79
2022/10/12 03:44:31;;;;;;;21.02;18.92;;;13.20;91.60;;;;;;4971035;28;20047;-79
2022/10/12 03:46:57;;;;;;;20.63;18.73;;;13.10;91.70;;;;;;4974090;28;20031;-79
2022/10/12 03:49:23;;;;;;;20.60;18.50;;;13.10;91.80;;;;;;4983538;28;20039;-79
2022/10/12 03:51:49;;;;;;;20.50;18.73;;;13.10;91.80;;;;;;4961850;28;20027;-79
2022/10/12 03:54:15;;;;;;;20.50;18.70;;;13.10;91.70;;;;;;4972007;28;20039;-79
2022/10/12 03:56:42;;;;;;;20.40;18.40;;;13.10;91.50;;;;;;4978654;28;20042;-80
2022/10/12 03:59:08;;;;;;;19.65;17.95;;;13.20;91.50;;;;;;5000402;28;20050;-79
2022/10/12 04:01:34;;;;;;;18.88;17.27;;;13.20;91.30;;;;;;4972212;28;20031;-79
2022/10/12 04:04:00;;;;;;;19.50;17.90;;;13.10;91.30;;;;;;4983134;28;20022;-79
2022/10/12 04:06:26;;;;;;;19.27;17.60;;;13.10;91.30;;;;;;4988563;28;20468;-80
2022/10/12 04:08:52;;;;;;;19.88;18.23;;;13.10;91.20;;;;;;4971681;28;20038;-81
2022/10/12 04:11:19;;;;;;;19.70;17.60;;;13.10;91.20;;;;;;4977962;28;20058;-82
2022/10/12 04:13:45;;;;;;;18.65;17.15;;;13.00;91.20;;;;;;4953891;28;20045;-82
2022/10/12 04:16:11;;;;;;;19.77;17.83;;;12.90;91.30;;;;;;5011069;28;20033;-81
2022/10/12 04:18:37;;;;;;;19.73;17.92;;;12.80;91.50;;;;;;4981373;28;20047;-82
2022/10/12 04:21:09;;;;;;;19.17;17.33;;;12.80;91.60;;;;;;4969464;28;20046;-82
2022/10/12 04:23:35;;;;;;;19.30;17.67;;;12.80;91.50;;;;;;4977709;28;20031;-82
2022/10/12 04:26:01;;;;;;;18.80;17.10;;;12.80;91.40;;;;;;4972336;28;20043;-82
2022/10/12 04:28:27;;;;;;;20.80;17.45;;;12.80;91.50;;;;;;4955911;28;20038;-81
2022/10/12 04:30:53;;;;;;;18.88;17.25;;;12.80;91.50;;;;;;4958041;28;20030;-81
2022/10/12 04:33:19;;;;;;;19.20;17.60;;;12.70;91.60;;;;;;4991341;28;20498;-81
2022/10/12 04:35:45;;;;;;;19.45;17.73;;;12.70;91.50;;;;;;4989347;28;20053;-81
2022/10/12 04:38:12;;;;;;;19.02;17.48;;;12.70;91.40;;;;;;4983308;28;20042;-81
2022/10/12 04:40:38;;;;;;;18.08;16.38;;;12.70;91.50;;;;;;4975852;28;20046;-81
2022/10/12 04:43:04;;;;;;;18.58;17.05;;;12.60;91.70;;;;;;4975395;28;20041;-82
2022/10/12 04:45:30;;;;;;;18.88;17.23;;;12.50;91.80;;;;;;4964235;28;20027;-81
2022/10/12 04:47:56;;;;;;;20.13;18.45;;;12.50;91.80;;;;;;4940018;28;20047;-82
2022/10/12 04:50:22;;;;;;;18.08;16.60;;;12.60;91.60;;;;;;4957766;28;20396;-81
2022/10/12 04:52:48;;;;;;;18.17;16.73;;;12.50;91.60;;;;;;4990890;28;20026;-81
2022/10/12 04:55:14;;;;;;;19.27;17.35;;;12.50;91.60;;;;;;4988900;28;20046;-83
2022/10/12 04:57:41;;;;;;;19.30;17.65;;;12.50;91.70;;;;;;4948754;28;20043;-82
2022/10/12 05:00:07;;;;;;;19.85;17.00;;;12.40;91.60;;;;;;4984704;28;20055;-81
2022/10/12 05:02:33;;;;;;;18.13;16.52;;;12.40;92.40;;;;;;4971651;28;20416;-82
2022/10/12 05:05:00;;;;;;;17.80;16.35;;;12.40;91.80;;;;;;4974681;28;20040;-81
2022/10/12 05:07:26;;;;;;;17.92;16.33;;;12.40;91.80;;;;;;4939483;28;20039;-81
2022/10/12 05:09:52;;;;;;;18.33;16.83;;;12.30;91.80;;;;;;4980755;28;20054;-81
2022/10/12 05:12:18;;;;;;;18.15;16.63;;;12.30;91.90;;;;;;4991316;28;20019;-81
2022/10/12 05:14:44;;;;;;;17.50;16.08;;;12.40;92.20;;;;;;4990358;28;20483;-81
2022/10/12 05:17:10;;;;;;;17.73;16.08;;;12.40;91.80;;;;;;4990765;28;20041;-81
2022/10/12 05:19:36;;;;;;;16.42;15.13;;;12.40;91.70;;;;;;4991284;28;20042;-81
2022/10/12 05:22:02;;;;;;;16.35;15.15;;;12.40;91.60;;;;;;4992873;28;20051;-81
2022/10/12 05:24:29;;;;;;;17.10;15.77;;;12.40;91.50;;;;;;4962789;28;20042;-81
2022/10/12 05:26:55;;;;;;;16.77;15.55;;;12.40;91.60;;;;;;4977613;28;20045;-81
2022/10/12 05:29:21;;;;;;;16.45;15.15;;;12.40;91.60;;;;;;4994510;28;20512;-81
2022/10/12 05:31:47;;;;;;;16.10;14.88;;;12.30;91.70;;;;;;4978107;28;20030;-81
2022/10/12 05:34:14;;;;;;;16.13;14.82;;;12.10;92.00;;;;;;4958818;28;20046;-81
2022/10/12 05:36:40;;;;;;;15.23;14.23;;;12.10;92.20;;;;;;4958852;28;20034;-81
2022/10/12 05:39:06;;;;;;;15.40;14.10;;;12.20;91.80;;;;;;4942355;28;20039;-81
2022/10/12 05:41:32;;;;;;;16.40;15.20;;;12.20;91.90;;;;;;4959101;28;20042;-81
2022/10/12 05:43:58;;;;;;;16.92;15.68;;;12.10;92.00;;;;;;4995695;28;20029;-81
2022/10/12 05:46:24;;;;;;;16.65;15.43;;;12.10;92.10;;;;;;4994161;28;20045;-81
2022/10/12 05:48:50;;;;;;;17.95;16.38;;;12.10;92.20;;;;;;4995604;28;20022;-81
2022/10/12 05:51:16;;;;;;;17.25;15.52;;;12.10;92.10;;;;;;4974355;28;20488;-81
2022/10/12 05:53:42;;;;;;;17.17;15.77;;;12.20;92.10;;;;;;4958892;28;20043;-81
2022/10/12 05:56:08;;;;;;;17.08;15.77;;;12.10;92.00;;;;;;4974781;28;20361;-81
2022/10/12 05:58:34;;;;;;;16.98;15.63;;;12.20;92.00;;;;;;4959042;28;20049;-81
2022/10/12 06:01:05;;;;;;;18.33;16.55;;;12.20;91.90;;;;;;4973939;28;20043;-81
2022/10/12 06:03:31;;;;;;;18.50;16.92;;;12.30;91.90;;;;;;4974931;28;20034;-81
2022/10/12 06:05:57;;;;;;;19.75;17.90;;;12.30;91.90;;;;;;4985935;28;20045;-81
2022/10/12 06:08:23;;;;;;;18.02;16.45;;;12.30;91.90;;;;;;4961350;28;20105;-81
2022/10/12 06:10:50;;;;;;;18.40;16.58;;;12.40;91.90;;;;;;4961626;28;20045;-81
2022/10/12 06:13:16;;;;;;;18.67;17.00;;;12.40;91.80;;;;;;4977905;28;20034;-81
2022/10/12 06:15:46;;;;;;;17.55;15.90;;;12.40;91.80;;;;;;4993254;28;20030;-81
2022/10/12 06:18:12;;;;;;;18.00;16.17;;;12.40;91.80;;;;;;4973602;28;20039;-81
2022/10/12 06:20:38;;;;;;;18.20;16.50;;;12.40;91.80;;;;;;4991835;28;20053;-81
2022/10/12 06:23:05;;;;;;;17.98;16.55;;;12.40;91.80;;;;;;4977648;28;20045;-81
2022/10/12 06:25:31;;;;;;;19.52;17.83;;;12.40;91.90;;;;;;4993728;28;20033;-81
2022/10/12 06:27:57;;;;;;;18.80;17.17;;;12.40;92.50;;;;;;4994899;28;20034;-81
2022/10/12 06:30:23;;;;;;;19.55;17.05;;;12.20;93.00;;;;;;4994334;28;20049;-84
2022/10/12 06:32:49;;;;;;;17.85;16.05;;;12.20;93.40;;;;;;4985648;28;20031;-84
2022/10/12 06:35:15;;;;;;;19.00;17.25;;;12.00;93.60;;;;;;4975964;28;20042;-83
2022/10/12 06:37:50;;;;;;;18.73;15.95;;;11.80;93.90;;;;;;4977308;28;20033;-82
2022/10/12 06:40:19;;;;;;;18.23;16.50;;;11.90;93.70;;;;;;4962216;28;20392;-87
2022/10/12 06:42:45;;;;;;;18.13;16.40;;;11.90;93.60;;;;;;4961227;28;20027;-84
2022/10/12 06:45:11;;;;;;;26.92;16.67;;;11.80;94.10;;;;;;4979176;28;20495;-83
2022/10/12 06:47:38;;;;;;;18.25;16.55;;;11.80;94.10;;;;;;4959549;28;20045;-86
2022/10/12 06:50:04;;;;;;;17.83;16.05;;;11.80;94.10;;;;;;4974102;28;20400;-86
2022/10/12 06:52:30;;;;;;;19.38;17.35;;;11.80;94.40;;;;;;4962896;28;20046;-88
2022/10/12 06:54:56;;;;;;;20.45;18.48;;;12.00;94.00;;;;;;4996453;28;20042;-89
2022/10/12 06:57:23;;;;;;;18.20;16.48;;;12.10;93.40;;;;;;4983108;28;20041;-88
2022/10/12 06:59:49;;;;;;;19.85;17.92;;;12.20;93.80;;;;;;4988027;28;20030;-92
2022/10/12 07:02:15;;;;;;;20.00;18.00;;;12.30;93.20;;;;;;4999083;28;20038;-92
2022/10/12 07:04:41;;;;;;;20.60;18.55;;;12.40;93.20;;;;;;4994978;28;20011;-91
2022/10/12 07:07:07;;;;;;;18.83;16.98;;;12.50;92.90;;;;;;5003959;28;20041;-85
2022/10/12 07:09:33;;;;;;;18.65;16.70;;;12.50;93.10;;;;;;4973087;28;20038;-90
2022/10/12 07:11:59;;;;;;;17.15;15.65;;;12.40;93.20;;;;;;4976256;28;20361;-91
2022/10/12 07:14:25;;;;;;;17.92;16.27;;;12.50;93.10;;;;;;4974166;28;20060;-91
2022/10/12 07:16:51;;;;;;;17.95;16.33;;;12.60;92.90;;;;;;4985276;28;20068;-86
2022/10/12 07:19:17;;;;;;;18.40;16.85;;;12.50;93.00;;;;;;4986451;28;20041;-90
2022/10/12 07:21:44;;;;;;;18.50;16.77;;;12.50;93.20;;;;;;5007696;28;20050;-92
2022/10/12 07:24:11;;;;;;;18.10;16.45;;;12.50;93.20;;;;;;4987713;28;20030;-82
2022/10/12 07:26:37;;;;;;;20.00;18.48;;;12.70;93.10;;;;;;4989311;28;20042;-90
2022/10/12 07:29:03;;;;;;;19.38;17.50;;;12.70;93.00;;;;;;4967978;28;20487;-90
2022/10/12 07:31:30;;;;;;;19.98;18.40;;;12.80;92.90;;;;;;5000686;28;20034;-88
2022/10/12 07:33:56;;;;;;;22.08;20.10;;;12.80;93.00;;;;;;4999212;28;20018;-88
2022/10/12 07:36:22;;;;;;;23.92;21.95;;;12.90;93.00;;;;;;4974967;28;20053;-87
2022/10/12 07:38:48;;;;;;;26.67;23.60;;;13.30;92.70;;;;;;4962235;28;20030;-87
2022/10/12 07:41:14;;;;;;;26.73;24.63;;;13.60;91.90;;;;;;4963046;28;20054;-81
2022/10/12 07:43:41;;;;;;;26.70;24.42;;;13.50;91.30;;;;;;4976763;28;20053;-91
2022/10/12 07:46:07;;;;;;;27.25;24.73;;;13.70;91.80;;;;;;4977753;28;20039;-87
2022/10/12 07:48:33;;;;;;;25.15;23.15;;;14.10;91.90;;;;;;4972548;28;20027;-88
2022/10/12 07:51:06;;;;;;;24.88;22.70;;;14.40;91.80;;;;;;4957790;28;20046;-87
2022/10/12 07:53:33;;;;;;;25.13;22.75;;;14.70;90.60;;;;;;4973419;28;20062;-89
2022/10/12 07:56:06;;;;;;;26.85;24.08;;;14.50;89.70;;;;;;4992452;28;20192;-88
2022/10/12 07:58:33;;;;;;;25.95;23.25;;;14.50;90.70;;;;;;4948695;28;20050;-86
2022/10/12 08:01:06;;;;;;;31.13;28.50;;;15.00;90.90;;;;;;4953729;28;20046;-86
2022/10/12 08:03:32;;;;;;;25.63;22.98;;;15.50;88.50;;;;;;4944358;28;20050;-86
2022/10/12 08:05:58;;;;;;;26.98;24.77;;;15.00;88.00;;;;;;4962017;28;20049;-86
2022/10/12 08:08:24;;;;;;;26.05;23.75;;;15.00;90.00;;;;;;5011690;28;20041;-84
2022/10/12 08:10:50;;;;;;;27.08;24.92;;;14.70;89.70;;;;;;5011219;28;20041;-83
2022/10/12 08:13:16;;;;;;;26.67;24.42;;;14.90;90.00;;;;;;4978794;28;20388;-84
2022/10/12 08:15:48;;;;;;;29.80;27.00;;;14.80;89.40;;;;;;4958609;28;20042;-84
2022/10/12 08:18:14;;;;;;;29.73;26.88;;;14.90;90.20;;;;;;4965251;28;20056;-83
2022/10/12 08:20:40;;;;;;;28.95;26.13;;;15.00;89.60;;;;;;4971848;28;20050;-83
2022/10/12 08:23:06;;;;;;;31.17;28.80;;;15.00;89.70;;;;;;4972385;28;20030;-82
2022/10/12 08:25:33;;;;;;;34.47;31.33;;;15.00;90.20;;;;;;4974662;28;20043;-84
2022/10/12 08:27:59;;;;;;;34.33;31.27;;;15.20;90.20;;;;;;4973255;28;20049;-84
2022/10/12 08:30:26;;;;;;;35.72;32.97;;;15.40;89.60;;;;;;4975432;28;20467;-84
2022/10/12 08:32:52;;;;;;;33.63;31.25;;;15.40;89.60;;;;;;4975024;28;20482;-83
2022/10/12 08:35:18;;;;;;;34.28;31.67;;;15.20;89.50;;;;;;4970190;28;20053;-84
2022/10/12 08:37:44;;;;;;;31.98;29.00;;;15.20;90.10;;;;;;4973719;28;20403;-82
2022/10/12 08:40:19;;;;;;;31.40;28.80;;;15.30;90.30;;;;;;4990432;28;20042;-84
2022/10/12 08:43:14;;;;;;;33.45;30.70;;;15.30;90.20;;;;;;4969847;28;20046;-85
2022/10/12 08:45:46;;;;;;;32.85;29.92;;;15.50;90.10;;;;;;4965135;28;20035;-86
2022/10/12 08:48:17;;;;;;;32.88;30.58;;;15.60;90.10;;;;;;4937694;28;20036;-83
2022/10/12 08:50:50;;;;;;;30.05;27.70;;;15.80;89.40;;;;;;4950736;28;20046;-83
2022/10/12 08:53:29;;;;;;;31.52;28.98;;;16.00;89.70;;;;;;4936215;28;20466;-84
2022/10/12 08:55:59;;;;;;;31.48;28.75;;;16.10;88.70;;;;;;4922432;29;20557;-85
2022/10/12 08:58:32;;;;;;;32.42;29.98;;;16.10;89.00;;;;;;4946222;28;20031;-83
2022/10/12 09:01:31;;;;;;;29.38;27.15;;;15.90;89.60;;;;;;4938630;28;20043;-84
2022/10/12 09:04:31;;;;;;;39.10;35.22;;;15.80;90.70;;;;;;4942051;28;20150;-82
2022/10/12 09:07:06;;;;;;;30.35;27.73;;;15.90;90.20;;;;;;4957006;28;20034;-84
2022/10/12 09:10:03;;;;;;;33.20;30.25;;;16.00;90.40;;;;;;4941754;28;20043;-90
2022/10/12 09:12:57;;;;;;;30.33;27.67;;;16.20;91.00;;;;;;4966374;28;20043;-91
2022/10/12 09:15:31;;;;;;;31.58;28.92;;;16.50;90.40;;;;;;4899994;29;20045;-86
2022/10/12 09:17:58;;;;;;;30.38;27.75;;;16.60;90.00;;;;;;4897281;29;20044;-83
2022/10/12 09:20:34;;;;;;;32.65;30.15;;;16.60;90.20;;;;;;4897076;29;20513;-82
2022/10/12 09:23:15;;;;;;;32.63;30.02;;;16.80;90.00;;;;;;4886510;29;20053;-88
2022/10/12 09:25:41;;;;;;;30.33;28.00;;;16.90;90.40;;;;;;4886242;29;20156;-90
2022/10/12 09:28:29;;;;;;;30.15;27.42;;;16.80;89.80;;;;;;4881249;29;20052;-90
2022/10/12 09:31:25;;;;;;;32.20;29.25;;;16.90;90.20;;;;;;4911610;29;20440;-89
2022/10/12 09:33:58;;;;;;;31.35;28.52;;;17.00;90.10;;;;;;4911398;29;20117;-88
2022/10/12 09:36:29;;;;;;;31.15;28.63;;;17.10;89.90;;;;;;4936787;29;20036;-90
2022/10/12 09:38:55;;;;;;;32.40;29.35;;;17.20;89.50;;;;;;4936153;29;20147;-87
2022/10/12 09:41:32;;;;;;;38.72;35.25;;;17.30;89.40;;;;;;4932820;29;20051;-89
2022/10/12 09:43:59;;;;;;;33.45;30.60;;;17.40;89.80;;;;;;4918765;29;20032;-87
2022/10/12 09:46:48;;;;;;;34.47;31.58;;;17.40;89.20;;;;;;4917114;28;20047;-89
2022/10/12 09:49:14;;;;;;;38.33;35.08;;;17.40;89.70;;;;;;4920732;29;20043;-89
2022/10/12 09:51:40;;;;;;;34.80;32.03;;;17.50;89.90;;;;;;4949183;28;20041;-83
2022/10/12 09:54:06;;;;;;;36.22;32.88;;;17.50;89.30;;;;;;4992683;28;20475;-83
2022/10/12 09:56:37;;;;;;;34.42;31.60;;;17.70;89.50;;;;;;4995614;28;20053;-92
2022/10/12 09:59:05;;;;;;;38.42;35.28;;;17.60;89.20;;;;;;4988555;28;20407;-90
2022/10/12 10:01:35;;;;;;;34.88;31.75;;;17.50;90.10;;;;;;4982844;28;20480;-89
2022/10/12 10:04:25;;;;;;;34.83;32.22;;;17.60;90.10;;;;;;4975323;28;20471;-91
2022/10/12 10:06:51;;;;;;;37.63;34.58;;;17.70;90.00;;;;;;5001170;28;20539;-85
2022/10/12 10:09:28;;;;;;;39.03;35.40;;;17.70;90.50;;;;;;4963432;28;20041;-91
2022/10/12 10:11:55;;;;;;;44.10;40.30;;;17.60;90.80;;;;;;4981766;28;20038;-91
2022/10/12 10:14:21;;;;;;;43.15;39.55;;;17.70;91.10;;;;;;4994150;28;20049;-90
2022/10/12 10:16:48;;;;;;;39.65;36.65;;;17.80;91.90;;;;;;4973389;28;20038;-90
2022/10/12 10:19:20;;;;;;;37.58;34.65;;;17.90;91.90;;;;;;4950321;28;20526;-84
2022/10/12 10:21:46;;;;;;;35.15;32.17;;;18.10;91.30;;;;;;4976186;28;20053;-87
2022/10/12 10:24:27;;;;;;;40.33;37.13;;;18.20;90.30;;;;;;4964135;28;20031;-90
2022/10/12 10:27:04;;;;;;;39.47;35.95;;;18.10;90.40;;;;;;4963020;28;20038;-89
2022/10/12 10:29:34;;;;;;;41.03;37.70;;;18.10;90.40;;;;;;4980556;28;20480;-89
2022/10/12 10:32:11;;;;;;;37.17;34.15;;;18.20;90.90;;;;;;4962726;28;20033;-86
2022/10/12 10:34:39;;;;;;;34.35;31.90;;;18.30;90.50;;;;;;4980629;28;20018;-89
2022/10/12 10:37:05;;;;;;;33.55;30.80;;;18.40;90.10;;;;;;4979734;28;20249;-88
2022/10/12 10:39:39;;;;;;;34.45;31.85;;;18.40;90.00;;;;;;4978863;28;20038;-87
2022/10/12 10:42:09;;;;;;;39.30;36.03;;;18.40;89.90;;;;;;4948538;28;20049;-88
2022/10/12 10:44:36;;;;;;;35.67;32.92;;;18.30;90.10;;;;;;4969814;28;20034;-90
2022/10/12 10:47:09;;;;;;;32.47;29.58;;;18.40;90.20;;;;;;4976663;28;20031;-86
2022/10/12 10:49:43;;;;;;;37.65;34.50;;;18.60;90.00;;;;;;4978183;28;20061;-89
2022/10/12 10:52:22;;;;;;;43.53;40.38;;;18.70;89.70;;;;;;4961285;28;20379;-88
2022/10/12 10:54:48;;;;;;;42.47;39.20;;;18.80;87.50;;;;;;4961851;28;20043;-87
2022/10/12 10:57:19;;;;;;;38.53;36.05;;;18.90;87.10;;;;;;4970233;28;20046;-87
2022/10/12 11:00:18;;;;;;;;;;;19.00;86.80;;;;;;4976728;28;20192;-87
2022/10/12 11:02:57;;;;;;;38.58;35.80;;;19.10;86.10;;;;;;4956748;28;19922;-86
2022/10/12 11:05:28;;;;;;;40.15;37.22;;;19.30;85.60;;;;;;4933034;28;20054;-85
2022/10/12 11:07:58;;;;;;;;;;;19.40;85.70;;;;;;4921200;28;20039;-86
2022/10/12 11:10:28;;;;;;;40.67;36.97;;;19.40;84.40;;;;;;4962570;28;19933;-86
2022/10/12 11:13:11;;;;;;;37.72;35.05;;;19.40;83.80;;;;;;4936999;28;20496;-86
2022/10/12 11:16:02;;;;;;;38.65;35.85;;;19.40;83.80;;;;;;4938168;28;20083;-86
2022/10/12 11:18:44;;;;;;;37.33;34.53;;;19.40;82.80;;;;;;4931740;28;20031;-85
2022/10/12 11:21:42;;;;;;;37.85;35.35;;;19.40;82.30;;;;;;4939875;28;20062;-87
2022/10/12 11:24:17;;;;;;;41.00;37.90;;;19.30;83.00;;;;;;4942093;28;20030;-88
2022/10/12 11:26:51;;;;;;;39.70;36.50;;;19.40;82.80;;;;;;4957619;28;20035;-88
2022/10/12 11:29:17;;;;;;;37.72;34.90;;;19.40;82.60;;;;;;4963427;28;20506;-87
2022/10/12 11:32:02;;;;;;;38.85;35.92;;;19.40;82.60;;;;;;4951443;28;20054;-87
2022/10/12 11:34:31;;;;;;;38.33;35.42;;;19.50;81.50;;;;;;4947260;28;20427;-86
2022/10/12 11:36:57;;;;;;;36.00;33.45;;;19.40;79.90;;;;;;4949713;28;20050;-89
2022/10/12 11:39:33;;;;;;;38.50;35.67;;;19.40;81.10;;;;;;4964797;28;20038;-91
2022/10/12 11:42:01;;;;;;;36.28;33.58;;;19.50;80.80;;;;;;4967960;28;20484;-90
2022/10/12 11:44:41;;;;;;;38.92;36.05;;;19.40;79.60;;;;;;4946828;28;20035;-87
2022/10/12 11:47:26;;;;;;;39.13;36.30;;;19.50;80.50;;;;;;4960106;28;20043;-87
2022/10/12 11:50:15;;;;;;;35.45;33.22;;;19.50;80.80;;;;;;4974513;28;20053;-87
2022/10/12 11:52:44;;;;;;;34.83;32.53;;;19.60;81.00;;;;;;4974347;28;20026;-87
2022/10/12 11:55:45;;;;;;;33.85;31.60;;;19.50;81.40;;;;;;4966641;28;20018;-87
2022/10/12 11:58:22;;;;;;;34.28;31.55;;;19.50;81.20;;;;;;4977740;28;20031;-87
2022/10/12 12:01:10;;;;;;;35.60;32.95;;;19.60;81.90;;;;;;4960389;28;20047;-87
2022/10/12 12:03:42;;;;;;;34.67;32.03;;;19.70;81.50;;;;;;4976009;28;20038;-87
2022/10/12 12:06:27;;;;;;;38.10;35.55;;;19.60;80.70;;;;;;4975836;28;20503;-86
2022/10/12 12:09:02;;;;;;;39.55;36.97;;;19.70;81.10;;;;;;4978273;28;20034;-87
2022/10/12 12:11:30;;;;;;;40.25;37.45;;;19.80;80.80;;;;;;4976618;28;20035;-86
2022/10/12 12:14:26;;;;;;;39.53;36.35;;;19.90;79.70;;;;;;4975151;28;20039;-85
2022/10/12 12:17:21;;;;;;;40.17;37.50;;;19.80;79.20;;;;;;4967105;28;20030;-87
2022/10/12 12:19:50;;;;;;;41.35;38.20;;;19.90;79.30;;;;;;4967262;28;20388;-86
2022/10/12 12:22:25;;;;;;;43.92;40.95;;;20.00;80.40;;;;;;4974701;28;20058;-87
2022/10/12 12:25:13;;;;;;;43.63;40.70;;;20.20;80.00;;;;;;4959106;28;20524;-88
2022/10/12 12:27:47;;;;;;;46.83;43.70;;;20.50;78.60;;;;;;4965815;28;20483;-88
2022/10/12 12:30:23;;;;;;;39.22;36.40;;;20.60;76.30;;;;;;4975881;28;20481;-87
2022/10/12 12:32:57;;;;;;;35.70;33.30;;;20.40;75.10;;;;;;4976543;28;20380;-87
2022/10/12 12:35:33;;;;;;;37.47;34.78;;;20.20;77.60;;;;;;4959705;28;20022;-88
2022/10/12 12:38:06;;;;;;;38.70;36.17;;;20.50;77.30;;;;;;4968484;28;20482;-86
2022/10/12 12:40:32;;;;;;;38.33;35.78;;;20.60;76.60;;;;;;4975494;28;20057;-87
2022/10/12 12:43:29;;;;;;;39.47;36.42;;;20.90;75.90;;;;;;4940667;28;20047;-86
2022/10/12 12:46:06;;;;;;;39.60;37.17;;;21.30;75.80;;;;;;4968712;28;20057;-86